createdAt,value
2019-05-10T00:04:47.565Z,7.57
2019-05-10T00:11:09.069Z,6.83
2019-05-10T00:17:22.115Z,6.40
2019-05-10T00:23:27.887Z,6.40
2019-05-10T00:29:33.671Z,5.70
2019-05-10T00:35:39.418Z,5.60
2019-05-10T00:41:45.334Z,5.20
2019-05-10T00:47:51.334Z,5.10
2019-05-10T00:53:57.049Z,4.80
2019-05-10T01:00:02.800Z,4.77
2019-05-10T01:06:08.628Z,4.87
2019-05-10T01:12:14.313Z,4.80
2019-05-10T01:18:20.136Z,4.73
2019-05-10T01:24:25.860Z,4.90
2019-05-10T01:30:31.572Z,5.27
2019-05-10T01:36:39.549Z,4.57
2019-05-10T01:42:45.310Z,4.97
2019-05-10T01:48:51.621Z,4.63
2019-05-10T01:54:57.939Z,4.57
2019-05-10T02:01:04.250Z,4.80
2019-05-10T02:07:09.970Z,4.63
2019-05-10T02:13:15.682Z,4.73
2019-05-10T02:19:22.751Z,4.63
2019-05-10T02:25:28.473Z,4.90
2019-05-10T02:31:34.219Z,4.83
2019-05-10T02:37:39.956Z,4.87
2019-05-10T02:43:46.016Z,5.17
2019-05-10T02:49:51.770Z,4.87
2019-05-10T02:55:58.870Z,4.97
2019-05-10T03:02:07.599Z,4.47
2019-05-10T03:08:16.415Z,5.03
2019-05-10T03:14:24.062Z,5.87
2019-05-10T03:20:31.397Z,6.00
2019-05-10T03:26:50.263Z,5.73
2019-05-10T03:32:49.469Z,6.00
2019-05-10T03:38:55.558Z,6.33
2019-05-10T03:45:01.284Z,6.30
2019-05-10T03:51:07.323Z,7.00
2019-05-10T03:57:14.664Z,6.97
2019-05-10T04:03:21.088Z,7.60
2019-05-10T04:09:27.038Z,8.40
2019-05-10T04:15:32.895Z,9.10
2019-05-10T04:21:38.631Z,9.70
2019-05-10T04:27:44.355Z,10.20
2019-05-10T04:33:50.203Z,11.67
2019-05-10T04:39:56.086Z,12.17
2019-05-10T04:46:01.894Z,13.63
2019-05-10T04:52:08.146Z,13.17
2019-05-10T04:58:13.876Z,14.27
2019-05-10T05:04:19.753Z,15.47
2019-05-10T05:10:25.524Z,16.20
2019-05-10T05:16:31.260Z,17.03
2019-05-10T05:22:37.083Z,16.03
2019-05-10T05:28:42.944Z,16.50
2019-05-10T05:34:48.700Z,16.93
2019-05-10T05:40:54.831Z,18.40
2019-05-10T05:47:04.421Z,18.60
2019-05-10T05:53:08.378Z,18.43
2019-05-10T05:59:17.346Z,18.83
2019-05-10T06:05:34.072Z,16.47
2019-05-10T06:11:35.137Z,15.63
2019-05-10T06:17:37.131Z,14.70
2019-05-10T06:23:43.700Z,15.07
2019-05-10T06:29:49.725Z,15.47
2019-05-10T06:35:55.482Z,13.50
2019-05-10T06:42:02.277Z,12.97
2019-05-10T06:48:08.132Z,12.80
2019-05-10T06:54:14.082Z,12.87
2019-05-10T07:00:20.197Z,12.93
2019-05-10T07:06:25.984Z,13.43
2019-05-10T07:12:31.743Z,12.73
2019-05-10T07:18:37.681Z,12.27
2019-05-10T07:24:43.487Z,12.77
2019-05-10T07:30:49.224Z,13.33
2019-05-10T07:36:55.558Z,12.50
2019-05-10T07:43:01.350Z,12.43
2019-05-10T07:49:07.252Z,13.43
2019-05-10T07:55:18.554Z,13.03
2019-05-10T08:01:29.114Z,12.60
2019-05-10T08:07:29.384Z,12.17
2019-05-10T08:13:35.571Z,8.90
2019-05-10T08:19:42.146Z,6.63
2019-05-10T08:25:47.869Z,6.00
2019-05-10T08:31:56.006Z,5.47
2019-05-10T08:38:04.551Z,3.80
2019-05-10T08:44:19.121Z,4.27
2019-05-10T08:50:42.216Z,5.47
2019-05-10T08:56:25.360Z,5.87
2019-05-10T09:02:32.873Z,3.80
2019-05-10T09:08:38.797Z,3.47
2019-05-10T09:14:48.827Z,3.93
2019-05-10T09:21:00.494Z,2.90
2019-05-10T09:27:02.658Z,3.10
2019-05-10T09:33:10.319Z,2.90
2019-05-10T09:39:21.331Z,3.23
2019-05-10T09:45:24.361Z,3.57
2019-05-10T09:51:33.093Z,3.27
2019-05-10T09:57:38.223Z,2.63
2019-05-10T10:03:44.980Z,3.20
2019-05-10T10:09:50.863Z,3.00
2019-05-10T10:15:58.121Z,3.20
2019-05-10T10:22:05.743Z,3.97
2019-05-10T10:28:16.977Z,4.07
2019-05-10T10:34:19.016Z,3.47
2019-05-10T10:40:24.852Z,3.77
2019-05-10T10:46:33.956Z,3.43
2019-05-10T10:52:38.202Z,3.80
2019-05-10T10:58:44.000Z,3.77
2019-05-10T11:04:49.912Z,4.07
2019-05-10T11:10:55.649Z,5.70
2019-05-10T11:17:01.360Z,5.27
2019-05-10T11:23:07.198Z,5.43
2019-05-10T11:29:13.929Z,5.57
2019-05-10T11:35:28.523Z,6.30
2019-05-10T11:41:28.314Z,7.13
2019-05-10T11:47:34.113Z,7.87
2019-05-10T11:53:41.471Z,7.70
2019-05-10T11:59:47.575Z,8.30
2019-05-10T12:06:04.361Z,9.73
2019-05-10T12:12:03.380Z,10.77
2019-05-10T12:18:14.712Z,12.10
2019-05-10T12:26:29.497Z,12.17
2019-05-10T12:30:29.594Z,12.57
2019-05-10T12:36:33.437Z,12.37
2019-05-10T12:42:41.581Z,11.63
2019-05-10T12:48:46.929Z,10.97
2019-05-10T12:54:53.303Z,10.70
2019-05-10T13:00:59.286Z,9.60
2019-05-10T13:07:05.094Z,7.90
2019-05-10T13:13:11.110Z,8.40
2019-05-10T13:19:20.122Z,8.10
2019-05-10T13:25:25.066Z,8.30
2019-05-10T13:31:30.901Z,7.47
2019-05-10T13:37:36.736Z,7.20
2019-05-10T13:43:42.669Z,7.63
2019-05-10T13:49:49.314Z,7.80
2019-05-10T13:55:55.241Z,7.83
2019-05-10T14:02:01.197Z,8.30
2019-05-10T14:08:07.059Z,8.70
2019-05-10T14:14:14.518Z,8.57
2019-05-10T14:20:25.047Z,8.23
2019-05-10T14:26:28.220Z,5.83
2019-05-10T14:32:34.108Z,3.33
2019-05-10T14:38:39.910Z,4.20
2019-05-10T14:44:45.631Z,3.97
2019-05-10T14:50:51.477Z,3.97
2019-05-10T14:56:57.242Z,4.73
2019-05-10T15:03:03.805Z,5.53
2019-05-10T15:09:20.237Z,5.90
2019-05-10T15:15:18.305Z,5.73
2019-05-10T15:21:24.099Z,5.70
2019-05-10T15:27:29.917Z,5.57
2019-05-10T15:33:35.784Z,5.80
2019-05-10T15:39:41.914Z,5.63
2019-05-10T15:45:52.455Z,5.87
2019-05-10T15:52:15.185Z,7.30
2019-05-10T15:58:03.705Z,6.47
2019-05-10T16:04:09.417Z,7.17
2019-05-10T16:10:15.679Z,6.97
2019-05-10T16:16:21.645Z,8.03
2019-05-10T16:22:30.382Z,10.57
2019-05-10T16:28:35.134Z,4.87
2019-05-10T16:34:40.879Z,5.17
2019-05-10T16:40:57.258Z,4.80
2019-05-10T16:46:54.140Z,4.77
2019-05-10T16:53:05.757Z,5.90
2019-05-10T16:59:07.806Z,5.37
2019-05-10T17:05:15.632Z,6.17
2019-05-10T17:11:21.149Z,6.63
2019-05-10T17:17:31.117Z,7.30
2019-05-10T17:23:34.455Z,7.93
2019-05-10T17:29:44.606Z,8.13
2019-05-10T17:35:47.727Z,8.10
2019-05-10T17:41:57.595Z,8.57
2019-05-10T17:48:08.066Z,8.33
2019-05-10T17:54:09.916Z,9.40
2019-05-10T18:00:17.405Z,9.17
2019-05-10T18:06:24.485Z,9.47
2019-05-10T18:12:30.510Z,10.30
2019-05-10T18:18:46.148Z,10.77
2019-05-10T18:24:44.425Z,10.40
2019-05-10T18:30:50.402Z,10.40
2019-05-10T18:36:56.285Z,11.87
2019-05-10T18:43:04.670Z,11.73
2019-05-10T18:49:10.009Z,12.90
2019-05-10T18:55:15.968Z,11.77
2019-05-10T19:01:21.897Z,13.47
2019-05-10T19:07:27.625Z,15.13
2019-05-10T19:13:40.156Z,14.57
2019-05-10T19:19:42.286Z,13.27
2019-05-10T19:25:51.693Z,14.33
2019-05-10T19:31:57.640Z,14.13
2019-05-10T19:38:03.685Z,13.43
2019-05-10T19:44:09.550Z,13.77
2019-05-10T19:50:16.050Z,14.00
2019-05-10T19:56:24.105Z,14.60
2019-05-10T20:02:30.007Z,14.67
2019-05-10T20:08:35.779Z,16.20
2019-05-10T20:14:41.810Z,16.50
2019-05-10T20:20:47.808Z,17.27
2019-05-10T20:26:53.527Z,17.00
2019-05-10T20:32:59.437Z,17.37
2019-05-10T20:39:07.384Z,16.40
2019-05-10T20:45:14.216Z,18.33
2019-05-10T20:51:20.672Z,20.87
2019-05-10T20:57:26.727Z,18.33
2019-05-10T21:03:32.629Z,22.17
2019-05-10T21:09:39.205Z,16.83
2019-05-10T21:15:45.031Z,17.33
2019-05-10T21:21:50.827Z,16.30
2019-05-10T21:27:56.600Z,16.23
2019-05-10T21:34:09.621Z,17.73
2019-05-10T21:40:10.943Z,17.43
2019-05-10T21:46:16.720Z,16.57
2019-05-10T21:52:22.731Z,16.67
2019-05-10T21:58:32.719Z,16.50
2019-05-10T22:04:38.441Z,19.97
2019-05-10T22:10:44.249Z,20.33
2019-05-10T22:16:50.120Z,19.83
2019-05-10T22:22:56.191Z,18.77
2019-05-10T22:29:02.097Z,17.83
2019-05-10T22:35:08.281Z,19.80
2019-05-10T22:41:14.370Z,19.03
2019-05-10T22:47:20.540Z,20.77
2019-05-10T22:53:26.349Z,19.13
2019-05-10T22:59:32.317Z,20.97
2019-05-10T23:05:38.201Z,22.33
2019-05-10T23:11:44.065Z,21.53
2019-05-10T23:17:49.763Z,21.83
2019-05-10T23:23:55.776Z,23.93
2019-05-10T23:30:01.637Z,22.80
2019-05-10T23:36:08.231Z,22.77
2019-05-10T23:42:13.984Z,20.83
2019-05-10T23:48:20.505Z,20.70
2019-05-10T23:54:26.478Z,22.87
